Time;durP1;ratioP1;P1;durP2;ratioP2;P2;SDS_P1;SDS_P2;PMS_P1;PMS_P2;Temp;Humidity;BMP_temperature;BMP_pressure;BME280_temperature;BME280_humidity;BME280_pressure;Samples;Min_cycle;Max_cycle;Signal;HPM_P1;HPM_P2
2023/01/14 00:01:28;;;;;;;15.60;8.00;;;;;;;-0.23;64.33;101128.30;108129;1241;71130;-68
2023/01/14 00:03:55;;;;;;;25.00;8.10;;;;;;;-0.25;64.36;101123.17;108006;1240;73471;-69
2023/01/14 00:06:27;;;;;;;16.40;7.60;;;;;;;-0.26;64.48;101123.05;108059;1243;59648;-69
2023/01/14 00:08:55;;;;;;;13.40;6.30;;;;;;;-0.31;64.51;101120.02;108242;1240;61270;-69
2023/01/14 00:11:45;;;;;;;17.10;6.40;;;;;;;-0.33;64.59;101121.66;108095;1241;74061;-70
2023/01/14 00:14:11;;;;;;;16.10;8.10;;;;;;;-0.30;64.47;101121.58;108022;1238;62314;-70
2023/01/14 00:16:38;;;;;;;13.90;5.70;;;;;;;-0.23;64.44;101119.85;108272;1240;73635;-69
2023/01/14 00:19:05;;;;;;;17.00;6.90;;;;;;;-0.16;64.35;101126.27;108096;1242;61785;-69
2023/01/14 00:21:32;;;;;;;14.20;6.10;;;;;;;-0.10;64.35;101120.27;107979;1238;61279;-70
2023/01/14 00:23:59;;;;;;;15.20;6.40;;;;;;;-0.02;64.45;101130.40;108185;1238;73755;-69
2023/01/14 00:26:26;;;;;;;14.50;7.10;;;;;;;0.03;64.50;101132.52;108146;1241;71136;-69
2023/01/14 00:28:53;;;;;;;20.00;8.00;;;;;;;0.05;64.48;101129.88;108192;1241;72701;-70
2023/01/14 00:31:22;;;;;;;20.10;6.90;;;;;;;0.07;64.22;101133.13;108069;1244;59599;-70
2023/01/14 00:33:49;;;;;;;12.90;6.20;;;;;;;0.05;64.14;101138.36;108183;1241;61329;-70
2023/01/14 00:36:19;;;;;;;20.70;7.20;;;;;;;0.01;64.19;101141.04;108128;1241;74037;-70
2023/01/14 00:38:47;;;;;;;15.20;6.70;;;;;;;-0.04;64.18;101141.66;108245;1238;70736;-70
2023/01/14 00:41:16;;;;;;;15.80;7.50;;;;;;;-0.09;64.29;101143.84;108007;1240;73452;-70
2023/01/14 00:43:45;;;;;;;12.10;5.00;;;;;;;-0.11;64.37;101149.06;108008;1244;59649;-71
2023/01/14 00:46:24;;;;;;;15.90;6.70;;;;;;;-0.15;64.31;101148.30;108166;1240;61253;-70
2023/01/14 00:48:51;;;;;;;15.80;7.10;;;;;;;-0.22;64.39;101142.25;108137;1243;73855;-70
2023/01/14 00:51:18;;;;;;;15.20;7.10;;;;;;;-0.27;64.49;101145.81;108198;1242;70825;-69
2023/01/14 00:53:46;;;;;;;17.60;7.00;;;;;;;-0.31;64.59;101143.14;107973;1238;73631;-70
2023/01/14 00:56:14;;;;;;;14.30;6.50;;;;;;;-0.37;64.75;101138.80;108224;1238;60385;-71
2023/01/14 00:58:41;;;;;;;17.90;8.00;;;;;;;-0.41;64.85;101141.98;108173;1238;59911;-70
2023/01/14 01:01:08;;;;;;;12.90;5.50;;;;;;;-0.40;64.84;101141.28;107983;1244;73808;-70
2023/01/14 01:03:40;;;;;;;15.30;5.20;;;;;;;-0.34;64.93;101140.98;108166;1238;71158;-70
2023/01/14 01:06:07;;;;;;;22.80;9.40;;;;;;;-0.28;64.95;101134.45;108094;1240;73564;-70
2023/01/14 01:08:37;;;;;;;15.90;6.90;;;;;;;-0.21;65.00;101139.80;108163;1240;62205;-70
2023/01/14 01:11:04;;;;;;;15.60;7.40;;;;;;;-0.11;65.09;101143.73;107880;1245;60932;-70
2023/01/14 01:13:31;;;;;;;19.80;8.20;;;;;;;-0.08;64.99;101135.56;108202;1241;73847;-70
2023/01/14 01:16:00;;;;;;;18.60;7.50;;;;;;;-0.07;65.05;101138.30;108376;1241;71136;-70
2023/01/14 01:18:27;;;;;;;11.40;5.00;;;;;;;-0.08;64.97;101138.15;108191;1238;73890;-70
2023/01/14 01:21:06;;;;;;;17.30;6.90;;;;;;;-0.10;65.05;101136.30;107950;1237;59768;-69
2023/01/14 01:28:10;;;;;;;16.30;7.10;;;;;;;-0.25;65.20;101143.20;108107;1240;65101;-69
2023/01/14 01:30:38;;;;;;;15.10;5.70;;;;;;;-0.29;65.33;101146.73;108465;1241;71293;-69
2023/01/14 01:33:04;;;;;;;16.20;6.00;;;;;;;-0.37;65.49;101143.27;108131;1238;73777;-70
2023/01/14 01:35:31;;;;;;;15.40;6.10;;;;;;;-0.48;65.81;101146.30;108127;1240;60542;-69
2023/01/14 01:38:00;;;;;;;11.50;5.00;;;;;;;-0.55;65.94;101145.23;108125;1242;61205;-69
2023/01/14 01:40:28;;;;;;;12.80;5.10;;;;;;;-0.53;65.76;101140.38;107985;1238;72898;-69
2023/01/14 01:42:56;;;;;;;11.90;6.00;;;;;;;-0.60;66.02;101140.69;108073;1238;71347;-69
2023/01/14 01:45:41;;;;;;;18.40;8.20;;;;;;;-0.46;65.84;101140.21;107918;1245;73299;-69
2023/01/14 01:48:31;;;;;;;11.20;4.20;;;;;;;-0.39;65.90;101140.23;108134;1241;59605;-70
2023/01/14 01:51:05;;;;;;;21.60;6.30;;;;;;;-0.33;65.85;101136.32;107880;1240;59813;-70
2023/01/14 01:53:34;;;;;;;12.90;4.70;;;;;;;-0.31;65.88;101132.28;107933;1245;74018;-70
2023/01/14 01:56:03;;;;;;;12.60;6.00;;;;;;;-0.32;65.87;101128.67;107966;1239;70214;-69
2023/01/14 02:56:45;;;;;;;10.90;5.30;;;;;;;-0.24;66.62;101129.19;106283;1263;59637;-62
2023/01/14 02:59:26;;;;;;;11.40;5.50;;;;;;;-0.28;66.75;101130.15;107645;1247;60311;-75
2023/01/14 03:02:15;;;;;;;13.50;4.50;;;;;;;-0.33;66.66;101131.83;107784;1249;64997;-76
2023/01/14 03:05:02;;;;;;;12.80;5.70;;;;;;;-0.41;66.68;101133.73;107609;1245;62548;-74
2023/01/14 03:07:58;;;;;;;12.50;5.10;;;;;;;-0.50;66.82;101131.66;107770;1249;64872;-74
2023/01/14 03:10:48;;;;;;;13.00;5.40;;;;;;;-0.58;66.94;101132.38;107827;1246;59737;-75
2023/01/14 03:13:44;;;;;;;12.20;5.30;;;;;;;-0.67;66.96;101138.60;107788;1246;59623;-75
2023/01/14 03:16:28;;;;;;;11.20;4.80;;;;;;;-0.74;67.30;101137.73;107738;1249;64984;-75
2023/01/14 03:19:04;;;;;;;11.80;3.60;;;;;;;-0.79;67.35;101134.55;107831;1246;61693;-75
2023/01/14 03:21:37;;;;;;;11.60;4.50;;;;;;;-0.78;67.42;101133.99;107746;1247;73523;-75
2023/01/14 03:24:16;;;;;;;12.20;4.90;;;;;;;-0.73;67.27;101132.52;107755;1248;62103;-75
2023/01/14 03:26:46;;;;;;;11.90;3.70;;;;;;;-0.66;67.44;101135.80;107738;1248;60114;-75
2023/01/14 03:29:16;;;;;;;13.60;5.50;;;;;;;-0.58;67.36;101137.20;107830;1246;73913;-74
2023/01/14 03:31:51;;;;;;;16.10;7.00;;;;;;;-0.50;67.34;101134.45;108014;1246;71181;-73
2023/01/14 03:34:21;;;;;;;13.00;4.70;;;;;;;-0.46;67.31;101134.35;107824;1244;73455;-75
2023/01/14 03:36:49;;;;;;;10.20;3.70;;;;;;;-0.47;67.28;101135.92;107633;1241;60381;-73
2023/01/14 03:39:21;;;;;;;7.60;3.50;;;;;;;-0.51;67.23;101136.36;107670;1242;60909;-75
2023/01/14 03:44:48;;;;;;;10.00;3.50;;;;;;;-0.72;67.24;101141.64;107957;1246;62479;-75
2023/01/14 03:47:15;;;;;;;8.70;2.20;;;;;;;-0.83;67.49;101149.44;107799;1247;73544;-76
2023/01/14 03:49:42;;;;;;;9.80;4.40;;;;;;;-0.88;67.70;101146.80;107798;1246;59736;-75
2023/01/14 03:52:28;;;;;;;7.80;3.80;;;;;;;-0.98;67.66;101144.39;107651;1244;61057;-75
2023/01/14 03:54:57;;;;;;;9.00;3.60;;;;;;;-1.01;67.63;101143.95;107817;1246;65481;-77
2023/01/14 03:57:53;;;;;;;11.20;4.20;;;;;;;-0.96;67.81;101137.81;107735;1246;71036;-76
2023/01/14 04:00:28;;;;;;;13.50;5.10;;;;;;;-0.86;67.84;101132.45;107861;1246;73834;-76
2023/01/14 04:02:55;;;;;;;7.30;2.90;;;;;;;-0.79;67.85;101129.88;107843;1247;59735;-76
2023/01/14 04:05:22;;;;;;;9.80;4.70;;;;;;;-0.77;67.71;101132.25;107740;1243;61159;-77
2023/01/14 04:07:49;;;;;;;10.80;4.10;;;;;;;-0.81;67.84;101132.35;107916;1244;73888;-76
2023/01/14 04:10:16;;;;;;;8.50;3.30;;;;;;;-0.83;67.86;101134.28;107822;1247;70238;-77
2023/01/14 04:15:30;;;;;;;9.90;3.80;;;;;;;-0.89;67.79;101141.83;107899;1242;60002;-75
2023/01/14 04:17:56;;;;;;;9.20;4.60;;;;;;;-0.96;67.69;101146.42;107829;1246;60421;-75
2023/01/14 04:20:24;;;;;;;14.00;5.40;;;;;;;-1.04;67.76;101145.38;107581;1241;74821;-75
2023/01/14 04:22:52;;;;;;;7.90;2.90;;;;;;;-1.29;68.38;101145.17;107802;1247;70085;-75
2023/01/14 04:25:19;;;;;;;7.60;3.50;;;;;;;-1.42;68.79;101145.58;107819;1243;73562;-74
2023/01/14 04:27:46;;;;;;;13.10;3.70;;;;;;;-1.51;69.01;101144.88;107794;1246;60476;-75
2023/01/14 04:30:12;;;;;;;7.30;2.60;;;;;;;-1.53;69.11;101144.73;107874;1241;61364;-76
2023/01/14 04:32:40;;;;;;;13.10;4.30;;;;;;;-1.45;69.09;101147.34;107867;1246;73644;-76
2023/01/14 04:35:07;;;;;;;9.00;2.60;;;;;;;-1.17;68.69;101150.97;107830;1244;70166;-75
2023/01/14 04:37:34;;;;;;;8.10;2.50;;;;;;;-1.02;68.33;101154.82;107783;1246;73452;-76
2023/01/14 04:40:02;;;;;;;9.90;4.60;;;;;;;-0.95;68.23;101156.73;107885;1242;61233;-76
2023/01/14 04:42:30;;;;;;;9.80;3.90;;;;;;;-0.93;68.04;101156.87;107840;1246;60199;-76
2023/01/14 04:45:00;;;;;;;8.50;3.50;;;;;;;-0.99;68.37;101158.88;107897;1246;72817;-77
2023/01/14 04:47:28;;;;;;;8.80;2.90;;;;;;;-1.18;68.86;101158.90;107733;1250;70217;-78
2023/01/14 04:49:55;;;;;;;8.50;2.70;;;;;;;-1.26;68.81;101157.16;108004;1246;73777;-76
2023/01/14 04:52:26;;;;;;;14.80;4.90;;;;;;;-1.32;68.85;101157.79;107808;1246;60452;-77
2023/01/14 04:54:53;;;;;;;7.80;2.70;;;;;;;-1.27;68.80;101157.52;107949;1242;60156;-75
2023/01/14 04:57:20;;;;;;;8.30;3.40;;;;;;;-1.43;68.97;101163.14;107824;1242;72939;-76
2023/01/14 04:59:47;;;;;;;8.10;3.20;;;;;;;-1.54;69.27;101161.27;107733;1242;71144;-76
2023/01/14 05:02:14;;;;;;;10.40;4.00;;;;;;;-1.60;69.50;101160.87;107828;1244;73496;-75
2023/01/14 05:04:41;;;;;;;7.90;3.10;;;;;;;-1.66;69.67;101164.91;107867;1245;61370;-77
2023/01/14 05:07:08;;;;;;;10.30;3.20;;;;;;;-1.63;69.75;101162.65;107837;1242;61194;-77
2023/01/14 05:09:37;;;;;;;7.30;2.60;;;;;;;-1.60;69.72;101162.25;107828;1248;73965;-78
2023/01/14 05:12:04;;;;;;;9.60;4.00;;;;;;;-1.57;69.81;101159.61;107928;1245;71019;-75
2023/01/14 05:14:33;;;;;;;10.50;4.70;;;;;;;-1.50;69.72;101165.68;107823;1246;73127;-78
2023/01/14 05:17:00;;;;;;;10.80;4.60;;;;;;;-1.40;69.77;101162.06;107913;1247;60247;-78
2023/01/14 05:19:27;;;;;;;10.90;4.60;;;;;;;-1.31;69.75;101159.66;107866;1241;61125;-72
2023/01/14 05:21:54;;;;;;;13.50;5.60;;;;;;;-1.36;69.79;101161.64;107974;1248;73913;-78
2023/01/14 05:24:21;;;;;;;9.40;4.90;;;;;;;-1.39;69.88;101162.55;107951;1246;71122;-76
2023/01/14 05:26:48;;;;;;;8.50;3.50;;;;;;;-1.43;69.70;101162.29;107942;1248;73277;-77
2023/01/14 05:29:15;;;;;;;13.30;4.90;;;;;;;-1.49;69.85;101162.91;107923;1245;60247;-76
2023/01/14 05:31:45;;;;;;;11.70;4.60;;;;;;;-1.47;69.67;101162.35;108492;1246;60756;-78
2023/01/14 06:08:06;;;;;;;12.30;3.50;;;;;;;-1.04;68.23;101188.08;105989;1264;63196;-64
2023/01/14 06:10:36;;;;;;;11.80;4.20;;;;;;;-1.08;68.27;101190.93;107475;1247;70261;-62
2023/01/14 06:13:09;;;;;;;12.70;3.70;;;;;;;-1.15;68.42;101186.75;107614;1246;73307;-62
2023/01/14 06:15:39;;;;;;;12.10;3.30;;;;;;;-1.22;68.71;101189.61;107460;1248;60363;-62
2023/01/14 06:18:09;;;;;;;7.60;2.50;;;;;;;-1.26;68.83;101194.35;107577;1246;61221;-63
2023/01/14 06:20:37;;;;;;;10.00;4.30;;;;;;;-1.32;68.82;101193.25;107477;1247;73964;-62
2023/01/14 06:23:07;;;;;;;11.10;4.30;;;;;;;-1.39;69.06;101192.34;107282;1245;70832;-62
2023/01/14 06:25:34;;;;;;;9.70;3.50;;;;;;;-1.45;69.12;101195.36;107414;1255;71784;-64
2023/01/14 06:28:01;;;;;;;10.90;4.40;;;;;;;-1.49;69.34;101195.61;107446;1247;60189;-62
2023/01/14 06:30:28;;;;;;;14.10;4.10;;;;;;;-1.51;69.55;101197.19;107384;1247;61095;-62
2023/01/14 06:32:55;;;;;;;9.20;3.20;;;;;;;-1.52;69.52;101195.30;107588;1244;71832;-62
2023/01/14 06:35:22;;;;;;;9.50;3.50;;;;;;;-1.43;69.43;101202.55;107398;1247;71158;-63
2023/01/14 06:37:50;;;;;;;7.80;3.20;;;;;;;-1.36;69.26;101194.18;107519;1245;73568;-63
2023/01/14 06:40:17;;;;;;;10.50;3.20;;;;;;;-1.30;69.08;101192.86;107525;1247;61872;-62
2023/01/14 06:42:44;;;;;;;12.90;5.90;;;;;;;-1.30;69.10;101191.48;107345;1245;61203;-63
2023/01/14 06:45:15;;;;;;;12.10;4.60;;;;;;;-1.31;69.20;101195.30;107528;1249;74788;-63
2023/01/14 06:47:41;;;;;;;10.10;4.40;;;;;;;-1.33;69.30;101193.27;107567;1245;71138;-62
2023/01/14 06:50:09;;;;;;;9.70;3.30;;;;;;;-1.34;69.30;101197.06;107427;1244;72598;-63
2023/01/14 06:52:37;;;;;;;11.80;4.60;;;;;;;-1.36;69.44;101192.28;107429;1248;60285;-63
2023/01/14 06:55:05;;;;;;;10.40;4.20;;;;;;;-1.39;69.42;101193.20;107362;1245;60753;-62
2023/01/14 06:57:33;;;;;;;12.90;6.50;;;;;;;-1.41;69.56;101195.98;107694;1246;73844;-62
2023/01/14 07:00:00;;;;;;;16.50;6.50;;;;;;;-1.42;69.61;101195.98;107726;1244;71057;-64
2023/01/14 07:02:27;;;;;;;12.30;6.10;;;;;;;-1.41;69.80;101196.33;107810;1243;73266;-63
2023/01/14 07:04:57;;;;;;;15.20;4.90;;;;;;;-1.39;69.75;101195.09;107759;1244;60345;-64
2023/01/14 07:07:24;;;;;;;12.90;5.10;;;;;;;-1.33;69.67;101197.05;107720;1239;61218;-63
2023/01/14 07:09:51;;;;;;;10.50;3.70;;;;;;;-1.22;69.49;101196.16;107860;1242;73874;-63
2023/01/14 07:12:18;;;;;;;11.60;3.80;;;;;;;-1.12;69.39;101197.02;107738;1244;70899;-63
2023/01/14 07:14:45;;;;;;;15.90;5.60;;;;;;;-0.99;69.26;101194.88;107654;1242;72578;-62
2023/01/14 07:17:12;;;;;;;10.30;5.20;;;;;;;-0.85;68.99;101193.58;107939;1243;60402;-65
2023/01/14 07:19:39;;;;;;;15.40;6.50;;;;;;;-0.78;68.91;101192.23;107791;1241;60966;-64
2023/01/14 07:22:06;;;;;;;12.40;5.20;;;;;;;-0.74;68.90;101189.21;107900;1243;73576;-62
2023/01/14 07:24:33;;;;;;;17.50;7.10;;;;;;;-0.70;68.89;101192.59;107892;1238;71189;-63
2023/01/14 07:27:00;;;;;;;12.80;5.40;;;;;;;-0.69;68.70;101197.39;107759;1242;73740;-62
2023/01/14 07:29:29;;;;;;;12.20;5.20;;;;;;;-0.69;68.68;101199.63;107603;1244;60565;-63
2023/01/14 07:31:56;;;;;;;13.20;6.40;;;;;;;-0.73;68.42;101200.91;107739;1243;59917;-62
2023/01/14 07:34:23;;;;;;;12.40;6.20;;;;;;;-0.74;68.33;101199.75;107889;1241;73856;-62
2023/01/14 07:36:50;;;;;;;13.30;4.70;;;;;;;-0.75;68.41;101200.97;107728;1244;71057;-62
2023/01/14 07:39:17;;;;;;;12.00;5.60;;;;;;;-0.77;68.34;101200.99;107731;1239;73885;-63
2023/01/14 07:41:44;;;;;;;11.70;5.70;;;;;;;-0.66;68.03;101200.78;108531;1238;60243;-62
2023/01/14 07:44:23;;;;;;;11.00;4.60;;;;;;;-0.76;68.17;101203.91;107829;1239;61034;-62
2023/01/14 07:46:52;;;;;;;13.70;4.40;;;;;;;-0.79;68.25;101203.28;107745;1242;73915;-62
2023/01/14 07:49:20;;;;;;;11.50;4.60;;;;;;;-0.74;68.08;101201.11;108335;1238;71581;-63
2023/01/14 07:51:48;;;;;;;10.60;5.20;;;;;;;-0.64;67.77;101205.41;108074;1241;73528;-62
2023/01/14 07:54:15;;;;;;;14.50;7.30;;;;;;;-0.55;67.75;101203.48;108233;1240;61856;-62
2023/01/14 07:56:42;;;;;;;8.60;2.80;;;;;;;-0.46;67.62;101205.20;107909;1244;61158;-62
2023/01/14 07:59:09;;;;;;;10.00;3.80;;;;;;;-0.38;67.54;101208.47;107946;1241;72839;-63
2023/01/14 08:01:36;;;;;;;13.60;5.40;;;;;;;-0.32;67.39;101212.48;108062;1239;71119;-63
2023/01/14 08:04:03;;;;;;;10.20;4.50;;;;;;;-0.33;67.52;101218.03;107783;1244;73622;-62
2023/01/14 10:15:01;;;;;;;9.60;4.10;;;;;;;-0.09;66.77;101205.59;102034;1295;601520;-66
2023/01/14 10:17:32;;;;;;;16.00;5.60;;;;;;;0.12;66.04;101199.77;104393;1270;59243;-67
2023/01/14 10:20:00;;;;;;;9.80;4.60;;;;;;;0.23;65.83;101200.71;105483;1264;61375;-66
2023/01/14 10:22:42;;;;;;;11.70;4.80;;;;;;;0.31;65.70;101191.90;106213;1269;74203;-67
2023/01/14 10:25:20;;;;;;;12.40;6.90;;;;;;;0.33;65.59;101193.23;104601;1271;72603;-67
2023/01/14 10:27:55;;;;;;;11.70;5.60;;;;;;;0.32;65.88;101186.01;104364;1264;180868;-69
2023/01/14 10:30:33;;;;;;;22.10;8.40;;;;;;;0.33;65.87;101185.45;104905;1268;60590;-70
2023/01/14 10:33:02;;;;;;;14.70;6.00;;;;;;;0.32;65.86;101180.81;104677;1270;61132;-67
2023/01/14 10:35:36;;;;;;;15.70;7.20;;;;;;;0.32;66.00;101172.71;104528;1270;72224;-68
2023/01/14 10:38:03;;;;;;;18.40;8.60;;;;;;;0.30;65.94;101171.89;104710;1268;72714;-69
2023/01/14 10:40:33;;;;;;;14.70;7.50;;;;;;;0.30;66.01;101170.36;104637;1273;73368;-70
2023/01/14 10:43:00;;;;;;;11.70;5.70;;;;;;;0.30;66.02;101173.46;104441;1269;60597;-69
2023/01/14 10:45:27;;;;;;;20.30;8.90;;;;;;;0.27;65.91;101169.73;104597;1269;60471;-66
2023/01/14 10:47:56;;;;;;;17.40;6.70;;;;;;;0.28;65.87;101167.64;104501;1264;75290;-68
2023/01/14 10:50:25;;;;;;;16.40;5.40;;;;;;;0.35;65.78;101165.41;104626;1270;71118;-67
2023/01/14 10:52:53;;;;;;;12.50;5.50;;;;;;;0.42;65.79;101157.45;104679;1269;73791;-68
2023/01/14 10:55:24;;;;;;;11.50;5.40;;;;;;;0.52;65.81;101159.45;104770;1270;60366;-68
2023/01/14 10:58:11;;;;;;;21.10;9.30;;;;;;;0.58;65.77;101162.05;104821;1269;61189;-67
2023/01/14 11:00:39;;;;;;;12.60;6.10;;;;;;;0.61;65.75;101163.70;104667;1263;65412;-68
2023/01/14 11:03:17;;;;;;;14.80;5.40;;;;;;;0.62;65.70;101169.71;104742;1273;72726;-68
2023/01/14 11:05:44;;;;;;;13.40;5.00;;;;;;;0.59;65.56;101173.41;104591;1264;75803;-68
2023/01/14 11:08:14;;;;;;;16.40;8.50;;;;;;;0.56;65.57;101174.52;104607;1264;61846;-68
2023/01/14 11:10:41;;;;;;;17.70;7.00;;;;;;;0.53;65.66;101173.20;104633;1262;62438;-68
2023/01/14 11:13:41;;;;;;;18.60;7.00;;;;;;;0.53;65.86;101173.23;104642;1270;74130;-68
2023/01/14 11:16:29;;;;;;;15.40;7.10;;;;;;;0.50;65.58;101172.26;104854;1267;64257;-68
2023/01/14 11:19:14;;;;;;;15.20;4.20;;;;;;;0.46;65.68;101173.58;104687;1268;73787;-67
2023/01/14 11:21:42;;;;;;;16.30;6.30;;;;;;;0.43;65.54;101174.36;104645;1267;59653;-69
2023/01/14 11:24:28;;;;;;;14.60;6.40;;;;;;;0.42;65.34;101177.29;104739;1268;62408;-68
2023/01/14 11:27:03;;;;;;;15.40;5.50;;;;;;;0.45;65.49;101178.26;104669;1271;65324;-70
2023/01/14 11:29:31;;;;;;;9.40;3.70;;;;;;;0.54;65.56;101179.24;104771;1264;71263;-68
2023/01/14 11:32:12;;;;;;;16.40;5.30;;;;;;;0.61;65.48;101180.45;104587;1269;73818;-68
2023/01/14 11:34:50;;;;;;;14.40;6.50;;;;;;;0.64;65.40;101182.60;104695;1265;60608;-68
2023/01/14 11:37:19;;;;;;;14.20;5.80;;;;;;;0.65;65.27;101182.08;104709;1267;62477;-67
2023/01/14 11:39:57;;;;;;;10.70;5.10;;;;;;;0.63;65.15;101176.77;105657;1253;74496;-68
2023/01/14 11:42:27;;;;;;;14.60;5.60;;;;;;;0.59;65.09;101177.05;105550;1257;71320;-69
2023/01/14 11:45:07;;;;;;;14.90;7.00;;;;;;;0.54;65.01;101175.25;105480;1254;74992;-68
2023/01/14 11:47:51;;;;;;;14.20;5.60;;;;;;;0.50;65.23;101177.60;105335;1255;60500;-68
2023/01/14 11:50:20;;;;;;;13.10;4.80;;;;;;;0.47;65.32;101180.96;105513;1251;60828;-68
2023/01/14 11:53:16;;;;;;;14.40;6.50;;;;;;;0.42;65.44;101176.27;105560;1251;73712;-67
2023/01/14 11:55:50;;;;;;;16.10;6.30;;;;;;;0.38;65.48;101175.86;105472;1254;63985;-68
2023/01/14 11:58:22;;;;;;;11.80;4.70;;;;;;;0.36;65.54;101177.62;105622;1251;74848;-70
2023/01/14 12:00:52;;;;;;;13.70;4.60;;;;;;;0.42;65.53;101175.73;105646;1257;62100;-68
2023/01/14 12:03:32;;;;;;;14.90;6.00;;;;;;;0.50;65.44;101179.52;105594;1252;62266;-67
2023/01/14 12:05:59;;;;;;;10.70;3.80;;;;;;;0.60;65.53;101177.20;105605;1256;66712;-67
2023/01/14 12:08:28;;;;;;;16.40;6.80;;;;;;;0.72;65.48;101179.98;105270;1260;72696;-67
2023/01/14 12:10:59;;;;;;;19.00;7.10;;;;;;;0.80;65.45;101177.52;105219;1251;74791;-68
2023/01/14 16:55:41;;;;;;;20.20;8.90;;;;;;;0.44;70.11;101229.91;102067;1297;601797;-68
2023/01/14 16:58:09;;;;;;;20.50;7.30;;;;;;;0.62;69.79;101229.65;104726;1270;59159;-67
2023/01/14 17:00:38;;;;;;;14.80;6.60;;;;;;;0.73;69.64;101233.16;104389;1267;62192;-67
2023/01/14 17:03:08;;;;;;;19.30;5.80;;;;;;;0.81;69.53;101236.04;106303;1267;73366;-68
2023/01/14 17:05:36;;;;;;;17.70;7.40;;;;;;;0.89;69.46;101233.27;104467;1271;72123;-68
2023/01/14 17:08:04;;;;;;;14.40;5.20;;;;;;;0.99;69.49;101230.59;104389;1272;201999;-69
2023/01/14 17:10:30;;;;;;;13.80;6.20;;;;;;;1.08;69.43;101233.61;104967;1265;61901;-67
2023/01/14 17:12:57;;;;;;;18.40;8.80;;;;;;;1.13;69.41;101235.73;105130;1257;61133;-68
2023/01/14 17:15:25;;;;;;;14.00;6.50;;;;;;;1.18;69.50;101238.02;105001;1262;73174;-67
2023/01/14 17:17:53;;;;;;;15.50;7.40;;;;;;;1.21;69.52;101241.56;104995;1261;71399;-68
2023/01/14 17:20:26;;;;;;;16.50;7.40;;;;;;;1.21;69.37;101242.95;105014;1260;74692;-66
2023/01/14 17:22:56;;;;;;;15.00;8.00;;;;;;;1.19;69.41;101241.61;105138;1257;59598;-67
2023/01/14 17:25:23;;;;;;;19.70;8.60;;;;;;;1.16;69.21;101242.75;105120;1257;62278;-67
2023/01/14 17:27:51;;;;;;;13.10;7.30;;;;;;;1.12;69.24;101240.25;105053;1259;74182;-67
2023/01/14 17:30:18;;;;;;;17.50;7.20;;;;;;;1.09;69.27;101237.75;105418;1263;72612;-67
2023/01/14 17:32:47;;;;;;;18.90;8.40;;;;;;;1.04;69.27;101233.56;105096;1259;74619;-68
2023/01/14 17:35:15;;;;;;;16.40;9.20;;;;;;;1.00;69.38;101234.35;105139;1262;60475;-67
2023/01/14 17:37:45;;;;;;;15.20;7.10;;;;;;;0.97;69.37;101238.42;105415;1263;61646;-68
2023/01/14 17:40:14;;;;;;;13.30;6.20;;;;;;;0.91;69.42;101242.34;105143;1261;75069;-67
2023/01/14 17:42:43;;;;;;;11.30;5.40;;;;;;;0.94;69.32;101244.02;105101;1262;70975;-68
2023/01/14 17:45:10;;;;;;;13.80;5.90;;;;;;;0.98;69.28;101243.05;105211;1261;73970;-69
2023/01/14 17:47:37;;;;;;;15.30;6.30;;;;;;;1.02;69.29;101242.60;105058;1271;62063;-68
2023/01/14 17:50:05;;;;;;;14.40;4.80;;;;;;;1.05;69.26;101241.49;105004;1262;62190;-67
2023/01/14 17:52:32;;;;;;;14.20;5.30;;;;;;;1.08;69.18;101246.21;105112;1262;74220;-67
2023/01/14 17:54:59;;;;;;;13.60;5.30;;;;;;;1.17;69.39;101247.90;104990;1263;72372;-69
2023/01/14 17:57:27;;;;;;;15.20;6.30;;;;;;;1.20;69.43;101248.49;105202;1262;75104;-67
2023/01/14 17:59:55;;;;;;;11.10;5.40;;;;;;;1.21;69.55;101252.10;105084;1263;60614;-67
2023/01/14 18:02:23;;;;;;;13.50;5.40;;;;;;;1.22;69.52;101251.38;105108;1258;60978;-67
2023/01/14 18:04:50;;;;;;;14.30;6.30;;;;;;;1.21;69.51;101249.87;105087;1257;72771;-67
2023/01/14 18:07:17;;;;;;;12.60;5.00;;;;;;;1.17;69.49;101249.11;105020;1261;71023;-68
2023/01/14 18:09:44;;;;;;;14.80;6.20;;;;;;;1.11;69.46;101246.52;105080;1261;74524;-69
2023/01/14 18:12:11;;;;;;;16.80;7.20;;;;;;;1.06;69.46;101244.73;105021;1262;59611;-68
2023/01/14 18:16:47;;;;;;;14.40;6.70;;;;;;;0.90;69.79;101249.13;102977;1286;602897;-66
2023/01/14 18:19:14;;;;;;;15.50;6.40;;;;;;;0.94;69.51;101253.16;104313;1269;59284;-66
2023/01/14 18:21:41;;;;;;;18.60;6.30;;;;;;;0.91;69.73;101252.55;104446;1267;62301;-68
2023/01/14 18:24:09;;;;;;;10.90;5.00;;;;;;;0.93;69.62;101253.52;104389;1269;74522;-67
2023/01/14 18:26:37;;;;;;;14.40;5.90;;;;;;;0.99;69.63;101251.48;104592;1268;72302;-67
2023/01/14 18:29:04;;;;;;;13.30;5.10;;;;;;;1.04;69.60;101251.69;104452;1273;169920;-66
2023/01/14 18:31:31;;;;;;;11.30;5.60;;;;;;;1.10;69.74;101251.36;104429;1269;63111;-68
2023/01/14 18:34:00;;;;;;;12.80;5.50;;;;;;;1.19;69.76;101255.30;104564;1271;61609;-69
2023/01/14 18:36:27;;;;;;;15.50;7.10;;;;;;;1.21;69.72;101259.70;104589;1267;73761;-69
2023/01/14 18:38:54;;;;;;;19.50;7.30;;;;;;;1.21;69.71;101261.77;104627;1270;71363;-68
2023/01/14 18:41:21;;;;;;;12.90;6.10;;;;;;;1.20;69.85;101258.52;104481;1268;75076;-68
2023/01/14 18:43:57;;;;;;;12.90;5.70;;;;;;;1.18;69.86;101259.96;104560;1270;62012;-67
2023/01/14 18:46:25;;;;;;;13.40;6.30;;;;;;;1.15;69.85;101260.06;104601;1267;61326;-69
2023/01/14 18:48:54;;;;;;;16.00;5.40;;;;;;;1.11;69.75;101261.72;104582;1266;74887;-67
2023/01/14 18:51:26;;;;;;;12.70;6.20;;;;;;;1.08;69.91;101262.65;104617;1266;72460;-68
2023/01/14 18:53:53;;;;;;;16.70;7.30;;;;;;;1.04;69.83;101261.04;104707;1265;72640;-68
2023/01/14 18:57:12;;;;;;;13.50;6.50;;;;;;;1.00;69.92;101254.23;106060;1266;61426;-68
2023/01/14 19:01:19;;;;;;;11.90;3.60;;;;;;;0.99;69.96;101246.13;104690;1268;59555;-68
2023/01/14 19:05:01;;;;;;;11.50;4.30;;;;;;;1.06;69.80;101246.98;104645;1268;64298;-68
2023/01/14 19:07:31;;;;;;;12.10;4.00;;;;;;;1.13;69.86;101246.64;104738;1265;72223;-68
2023/01/14 19:09:58;;;;;;;9.70;5.00;;;;;;;1.19;69.88;101244.73;104493;1265;73773;-67
2023/01/14 19:12:25;;;;;;;12.90;5.10;;;;;;;1.26;69.94;101246.43;104662;1266;62146;-67
2023/01/14 19:14:52;;;;;;;11.90;4.50;;;;;;;1.32;70.10;101246.64;104633;1264;61470;-66
2023/01/14 19:17:19;;;;;;;11.70;4.30;;;;;;;1.35;70.18;101246.54;104516;1265;74056;-68
2023/01/14 19:19:46;;;;;;;11.60;4.40;;;;;;;1.36;70.21;101246.16;104445;1271;71145;-68
2023/01/14 19:22:14;;;;;;;12.20;4.80;;;;;;;1.35;69.98;101244.64;104600;1266;73879;-68
2023/01/14 19:24:41;;;;;;;10.20;3.30;;;;;;;1.31;69.76;101242.67;104479;1266;61758;-68
2023/01/14 19:27:08;;;;;;;11.50;4.70;;;;;;;1.25;69.89;101246.14;104493;1267;62679;-68
2023/01/14 19:29:34;;;;;;;8.80;4.40;;;;;;;1.18;69.81;101249.42;104641;1270;75134;-70
2023/01/14 19:32:01;;;;;;;11.00;6.30;;;;;;;1.10;69.92;101247.40;104553;1265;72565;-69
2023/01/14 19:34:32;;;;;;;12.00;4.40;;;;;;;1.02;70.00;101251.05;104489;1270;73903;-68
2023/01/14 19:37:00;;;;;;;9.20;2.80;;;;;;;1.00;69.96;101243.00;104597;1270;62010;-68
2023/01/14 19:39:28;;;;;;;14.00;4.20;;;;;;;1.02;69.96;101235.85;104565;1265;62323;-69
2023/01/14 19:41:55;;;;;;;12.10;5.20;;;;;;;1.05;69.92;101237.67;104720;1265;75229;-67
2023/01/14 19:44:23;;;;;;;9.50;4.00;;;;;;;1.08;69.99;101238.80;104537;1271;70209;-70
2023/01/14 19:46:50;;;;;;;11.40;4.30;;;;;;;1.11;70.08;101236.12;104551;1270;75265;-68
2023/01/14 19:49:17;;;;;;;10.70;4.40;;;;;;;1.13;69.99;101238.33;104570;1267;61993;-67
2023/01/14 19:51:44;;;;;;;20.80;6.00;;;;;;;1.10;70.11;101238.23;104587;1266;61004;-68
2023/01/14 19:54:11;;;;;;;14.00;5.90;;;;;;;1.07;70.29;101234.67;104624;1265;74308;-68
2023/01/14 19:56:39;;;;;;;14.50;6.00;;;;;;;1.05;70.45;101232.50;104580;1265;72195;-67
2023/01/14 19:59:06;;;;;;;14.40;6.60;;;;;;;1.04;70.51;101232.86;104673;1266;75102;-68
2023/01/14 20:01:36;;;;;;;21.90;7.50;;;;;;;1.02;70.41;101233.60;104689;1267;60645;-67
2023/01/14 20:04:06;;;;;;;15.00;6.20;;;;;;;0.99;70.49;101231.30;104669;1266;61382;-68
2023/01/14 20:06:33;;;;;;;13.90;6.10;;;;;;;0.93;70.51;101232.11;104522;1270;75619;-68